Time;durP1;ratioP1;P1;durP2;ratioP2;P2;SDS_P1;SDS_P2;PMS_P1;PMS_P2;Temp;Humidity;BMP_temperature;BMP_pressure;BME280_temperature;BME280_humidity;BME280_pressure;Samples;Min_cycle;Max_cycle;Signal;HPM_P1;HPM_P2
2022/03/31 00:00:34;;;;;;;;;48.00;38.75;;;;;9.29;72.26;99169.63;5036390;28;45723;-66
2022/03/31 00:03:01;;;;;;;;;54.50;43.00;;;;;9.26;71.92;99167.19;5035701;28;46995;-64
2022/03/31 00:05:27;;;;;;;;;51.00;41.50;;;;;9.26;71.84;99175.06;5035821;28;45378;-68
2022/03/31 00:07:54;;;;;;;;;51.25;42.25;;;;;9.26;71.96;99175.94;5035997;28;45289;-68
2022/03/31 00:10:26;;;;;;;;;51.75;40.00;;;;;9.21;71.92;99167.47;5036059;28;45289;-66
2022/03/31 00:12:52;;;;;;;;;49.50;40.25;;;;;9.21;71.52;99167.47;5034416;28;47465;-63
2022/03/31 00:15:19;;;;;;;;;49.00;39.25;;;;;9.17;71.78;99169.41;5034252;28;45358;-68
2022/03/31 00:17:44;;;;;;;;;47.00;38.75;;;;;9.12;71.75;99168.84;5035930;28;45351;-70
2022/03/31 00:20:11;;;;;;;;;48.50;39.00;;;;;9.14;71.21;99166.97;5036293;28;45257;-65
2022/03/31 00:22:38;;;;;;;;;51.25;41.00;;;;;9.14;71.54;99172.22;5036009;28;46665;-69
2022/03/31 00:25:06;;;;;;;;;48.00;38.75;;;;;9.14;71.35;99166.97;5035716;28;45388;-70
2022/03/31 00:27:31;;;;;;;;;48.25;39.50;;;;;9.16;70.85;99167.72;5035849;28;45293;-64
2022/03/31 00:29:57;;;;;;;;;51.25;39.50;;;;;9.18;70.92;99159.78;5035724;28;45325;-65
2022/03/31 00:32:22;;;;;;;;;48.50;39.75;;;;;9.17;70.61;99165.97;5035433;28;46267;-69
2022/03/31 00:34:48;;;;;;;;;46.50;38.00;;;;;9.14;70.43;99160.88;5035521;28;45291;-71
2022/03/31 00:37:13;;;;;;;;;48.50;36.00;;;;;9.15;70.54;99154.72;5035572;28;45171;-64
2022/03/31 00:39:39;;;;;;;;;45.50;35.00;;;;;9.15;70.15;99152.91;5035751;28;45594;-66
2022/03/31 00:42:06;;;;;;;;;45.00;36.00;;;;;9.13;69.74;99148.72;5035429;28;45352;-64
2022/03/31 00:44:31;;;;;;;;;45.25;36.25;;;;;9.10;70.00;99143.63;5035531;28;46053;-68
2022/03/31 00:46:57;;;;;;;;;42.75;35.75;;;;;9.07;69.94;99142.00;5035310;28;45431;-64
2022/03/31 00:49:25;;;;;;;;;46.50;38.25;;;;;9.05;70.51;99141.25;5035526;28;45591;-68
2022/03/31 00:51:53;;;;;;;;;43.75;36.25;;;;;9.06;69.39;99143.81;5035120;28;45497;-66
2022/03/31 00:54:22;;;;;;;;;44.75;34.00;;;;;8.94;68.90;99123.50;5035071;28;45439;-67
2022/03/31 00:56:49;;;;;;;;;45.00;37.50;;;;;9.00;69.47;99132.81;5035270;28;45364;-65
2022/03/31 00:59:15;;;;;;;;;41.25;35.25;;;;;9.01;69.39;99135.38;5035352;28;45400;-68
2022/03/31 01:01:43;;;;;;;;;43.00;36.50;;;;;9.03;69.57;99128.25;5035503;28;45617;-64
2022/03/31 01:04:09;;;;;;;;;47.50;37.50;;;;;9.06;69.35;99121.97;5035498;28;45214;-63
2022/03/31 01:06:35;;;;;;;;;45.00;37.25;;;;;9.08;69.56;99124.50;5035349;28;45162;-64
2022/03/31 01:09:05;;;;;;;;;46.00;36.00;;;;;9.10;68.95;99126.09;5035401;28;45430;-62
2022/03/31 01:11:31;;;;;;;;;43.00;33.00;;;;;9.07;69.26;99118.41;5034918;28;45377;-64
2022/03/31 01:13:57;;;;;;;;;45.75;34.75;;;;;9.06;69.08;99114.97;5035054;28;45333;-63
2022/03/31 01:16:22;;;;;;;;;44.25;36.00;;;;;9.05;69.41;99117.66;5035070;28;45280;-63
2022/03/31 01:18:50;;;;;;;;;46.00;37.00;;;;;9.01;68.94;99113.53;5035250;28;45345;-66
2022/03/31 01:21:16;;;;;;;;;42.75;35.50;;;;;8.96;69.23;99116.38;5034794;28;45800;-62
2022/03/31 01:23:43;;;;;;;;;48.00;37.25;;;;;8.89;68.86;99115.03;5035046;28;45439;-67
2022/03/31 01:26:10;;;;;;;;;45.75;35.50;;;;;8.82;69.68;99116.31;5035195;28;45434;-69
2022/03/31 01:28:44;;;;;;;;;45.00;35.50;;;;;8.74;69.41;99106.28;5035247;28;45556;-65
2022/03/31 01:31:10;;;;;;;;;46.75;36.75;;;;;8.69;70.18;99114.41;5034869;28;45417;-67
2022/03/31 01:33:37;;;;;;;;;43.50;35.25;;;;;8.67;70.26;99115.44;5016709;28;45314;-64
2022/03/31 01:36:04;;;;;;;;;45.00;36.00;;;;;8.60;70.34;99112.28;5016876;28;45245;-62
2022/03/31 01:38:30;;;;;;;;;46.50;36.00;;;;;8.52;70.58;99101.38;5033539;28;45526;-67
2022/03/31 01:40:56;;;;;;;;;45.50;36.00;;;;;8.47;70.41;99104.22;5034628;28;46353;-67
2022/03/31 01:43:22;;;;;;;;;47.00;33.00;;;;;8.42;70.85;99111.50;5034893;28;45340;-68
2022/03/31 01:45:52;;;;;;;;;47.25;38.00;;;;;8.34;71.52;99104.91;5034823;28;45393;-62
2022/03/31 01:48:21;;;;;;;;;43.25;35.00;;;;;8.24;71.90;99095.03;5034847;28;45515;-69
2022/03/31 01:50:47;;;;;;;;;42.75;35.25;;;;;8.16;71.21;99095.44;5034565;28;46127;-69
2022/03/31 01:53:14;;;;;;;;;45.25;36.00;;;;;8.10;72.28;99094.00;5035099;28;45311;-66
2022/03/31 01:55:40;;;;;;;;;46.25;36.00;;;;;8.04;71.66;99096.94;5034591;28;45265;-67
2022/03/31 01:58:06;;;;;;;;;48.75;38.75;;;;;7.98;72.85;99087.63;5036064;28;45569;-69
2022/03/31 02:00:32;;;;;;;;;50.75;41.75;;;;;7.95;72.50;99082.56;5037703;28;45418;-62
2022/03/31 02:02:59;;;;;;;;;49.50;38.75;;;;;7.95;72.96;99076.47;5036638;28;45778;-63
2022/03/31 02:05:24;;;;;;;;;51.50;42.00;;;;;7.91;72.72;99075.78;5037977;28;45371;-66
2022/03/31 02:07:56;;;;;;;;;52.00;39.50;;;;;7.89;73.52;99080.28;5038332;28;45532;-64
2022/03/31 02:10:22;;;;;;;;;52.25;39.75;;;;;7.89;73.63;99078.47;5036484;28;46127;-65
2022/03/31 02:12:50;;;;;;;;;49.25;38.25;;;;;7.87;73.70;99076.88;5036470;28;45910;-65
2022/03/31 02:15:15;;;;;;;;;52.75;42.50;;;;;7.83;73.80;99073.56;5038162;28;45260;-69
2022/03/31 02:17:41;;;;;;;;;53.25;41.25;;;;;7.81;74.19;99072.81;5037927;28;45565;-71
2022/03/31 02:20:08;;;;;;;;;54.25;43.00;;;;;7.75;74.20;99076.63;5019674;28;45466;-69
2022/03/31 02:22:33;;;;;;;;;54.25;42.50;;;;;7.73;74.30;99072.38;5037656;28;45447;-72
2022/03/31 02:24:58;;;;;;;;;55.25;42.00;;;;;7.67;74.98;99084.03;5037798;28;45249;-70
2022/03/31 02:27:24;;;;;;;;;59.75;47.50;;;;;7.64;74.66;99081.56;5037926;28;45334;-69
2022/03/31 02:29:50;;;;;;;;;57.00;45.50;;;;;7.51;75.32;99067.44;5036280;28;47154;-67
2022/03/31 02:32:15;;;;;;;;;59.75;45.75;;;;;7.51;76.01;99070.06;5038096;28;45435;-68
2022/03/31 02:34:41;;;;;;;;;55.25;45.00;;;;;7.44;75.84;99080.84;5038000;28;45237;-68
2022/03/31 02:37:06;;;;;;;;;62.50;46.75;;;;;7.40;76.73;99076.66;5037467;28;45231;-67
2022/03/31 02:39:32;;;;;;;;;58.00;46.25;;;;;7.33;75.95;99084.91;5037418;28;46056;-70
2022/03/31 02:41:58;;;;;;;;;58.75;46.50;;;;;7.31;77.04;99077.97;5037502;28;45202;-70
2022/03/31 02:44:24;;;;;;;;;56.00;44.75;;;;;7.26;75.93;99076.50;5037402;28;45356;-70
2022/03/31 02:46:51;;;;;;;;;54.25;43.00;;;;;7.23;77.65;99072.31;5037368;28;45522;-66
2022/03/31 02:49:17;;;;;;;;;52.75;42.75;;;;;7.20;76.78;99082.06;5037241;28;46685;-68
2022/03/31 02:51:42;;;;;;;;;59.25;46.00;;;;;7.13;77.64;99074.53;5019050;28;45396;-64
2022/03/31 02:56:52;;;;;;;;;62.75;46.75;;;;;7.06;77.85;99073.13;5037311;28;45453;-62
2022/03/31 02:59:17;;;;;;;;;58.25;46.00;;;;;7.03;77.27;99075.06;5036866;28;45434;-62
2022/03/31 03:01:43;;;;;;;;;59.00;47.00;;;;;7.00;77.68;99076.91;5036853;28;45447;-67
2022/03/31 03:04:10;;;;;;;;;57.25;45.50;;;;;6.99;77.79;99071.75;5037064;28;45331;-66
2022/03/31 03:06:36;;;;;;;;;57.75;46.25;;;;;6.97;77.67;99069.22;5037412;28;45328;-68
2022/03/31 03:09:02;;;;;;;;;59.50;45.50;;;;;6.97;78.72;99068.38;5036549;28;45269;-70
2022/03/31 03:11:28;;;;;;;;;61.25;49.00;;;;;6.98;78.60;99075.28;5035385;28;45321;-67
2022/03/31 03:13:54;;;;;;;;;60.75;46.75;;;;;6.98;77.48;99057.84;5036785;28;45471;-68
2022/03/31 03:16:19;;;;;;;;;63.75;47.00;;;;;6.97;77.51;99064.00;5036898;28;45275;-62
2022/03/31 03:18:45;;;;;;;;;59.00;46.75;;;;;6.98;78.40;99062.22;5036826;28;45893;-69
2022/03/31 03:21:10;;;;;;;;;60.50;45.50;;;;;7.01;78.17;99062.06;5036679;28;45360;-65
2022/03/31 03:23:37;;;;;;;;;60.00;48.75;;;;;7.00;78.48;99053.38;5036612;28;45230;-64
2022/03/31 03:26:04;;;;;;;;;60.50;46.50;;;;;7.01;78.82;99047.25;5036793;28;45455;-66
2022/03/31 03:28:31;;;;;;;;;60.25;46.75;;;;;7.01;78.17;99042.00;5036229;28;46232;-64
2022/03/31 03:30:57;;;;;;;;;64.00;48.50;;;;;7.01;78.29;99042.00;5036566;28;45543;-63
2022/03/31 03:33:23;;;;;;;;;64.75;50.75;;;;;6.99;78.42;99043.84;5036602;28;45350;-66
2022/03/31 03:35:49;;;;;;;;;62.75;47.00;;;;;6.97;78.05;99048.31;5036804;28;45491;-69
2022/03/31 03:38:17;;;;;;;;;62.00;47.25;;;;;6.96;77.93;99051.84;5036051;28;45256;-64
2022/03/31 03:40:43;;;;;;;;;62.25;48.50;;;;;6.94;77.41;99047.59;5034836;28;45378;-67
2022/03/31 03:43:09;;;;;;;;;63.00;48.75;;;;;6.94;78.11;99047.59;5036420;28;45507;-69
2022/03/31 03:45:36;;;;;;;;;62.25;48.50;;;;;6.91;78.44;99038.16;5036411;28;45521;-67
2022/03/31 03:48:01;;;;;;;;;60.75;48.00;;;;;6.91;77.86;99032.94;5036126;28;46008;-67
2022/03/31 03:50:27;;;;;;;;;60.50;46.25;;;;;6.90;78.43;99038.22;5036260;28;45263;-65
2022/03/31 03:52:52;;;;;;;;;62.50;50.00;;;;;6.91;77.75;99032.94;5036217;28;45443;-65
2022/03/31 03:55:18;;;;;;;;;63.25;48.75;;;;;6.89;77.65;99045.22;5036669;28;45213;-63
2022/03/31 03:57:44;;;;;;;;;59.75;47.00;;;;;6.90;77.17;99043.44;5035719;28;46455;-68
2022/03/31 04:00:10;;;;;;;;;56.50;44.25;;;;;6.86;77.47;99043.59;5035694;28;45350;-67
2022/03/31 04:02:37;;;;;;;;;55.50;44.25;;;;;6.86;76.98;99047.97;5018441;28;45611;-65
2022/03/31 04:05:03;;;;;;;;;58.00;43.50;;;;;6.85;76.81;99047.13;5018497;28;45451;-61
2022/03/31 04:07:29;;;;;;;;;63.00;48.00;;;;;6.84;76.70;99053.28;5035471;28;46536;-66
2022/03/31 04:09:54;;;;;;;;;53.25;45.00;;;;;6.84;77.49;99049.81;5034420;28;45344;-68
2022/03/31 04:12:20;;;;;;;;;60.75;47.25;;;;;6.83;76.26;99048.97;5036113;28;45336;-63
2022/03/31 04:14:45;;;;;;;;;60.00;46.75;;;;;6.85;76.55;99041.91;5035851;28;45607;-63
2022/03/31 04:17:10;;;;;;;;;56.00;44.25;;;;;6.86;76.70;99047.97;5035249;28;45416;-67
2022/03/31 04:19:36;;;;;;;;;61.00;50.00;;;;;6.85;76.65;99043.66;5035403;28;45415;-66
2022/03/31 04:22:01;;;;;;;;;63.00;47.25;;;;;6.86;75.82;99046.22;5035101;28;45320;-63
2022/03/31 04:24:26;;;;;;;;;53.25;41.75;;;;;6.85;76.04;99044.53;5035971;28;45535;-68
2022/03/31 04:26:52;;;;;;;;;63.50;50.00;;;;;6.84;76.17;99040.22;5035562;28;46130;-65
2022/03/31 04:29:17;;;;;;;;;59.25;46.25;;;;;6.87;75.93;99040.06;5035543;28;45333;-64
2022/03/31 04:31:43;;;;;;;;;55.50;45.50;;;;;6.86;75.75;99040.13;5035676;28;45751;-67
2022/03/31 04:34:15;;;;;;;;;58.00;44.75;;;;;6.83;75.25;99046.38;5035762;28;45192;-70
2022/03/31 04:36:41;;;;;;;;;60.00;46.75;;;;;6.76;75.31;99041.50;5035209;28;46575;-71
2022/03/31 04:39:07;;;;;;;;;59.50;45.25;;;;;6.79;75.49;99052.66;5035086;28;45173;-68
2022/03/31 04:41:33;;;;;;;;;57.50;45.00;;;;;6.77;75.60;99046.69;5035419;28;45262;-67
2022/03/31 04:43:58;;;;;;;;;57.25;45.25;;;;;6.71;75.95;99058.25;5035561;28;45601;-69
2022/03/31 04:46:24;;;;;;;;;53.50;43.50;;;;;6.68;75.70;99057.59;5035437;28;45381;-62
2022/03/31 04:48:50;;;;;;;;;59.25;47.00;;;;;6.66;75.58;99048.97;5035377;28;45213;-68
2022/03/31 04:51:15;;;;;;;;;57.25;44.75;;;;;6.65;75.23;99049.88;5035552;28;45252;-70
2022/03/31 04:53:40;;;;;;;;;59.50;47.00;;;;;6.60;75.68;99041.44;5035832;28;45431;-67
2022/03/31 04:56:06;;;;;;;;;58.50;46.00;;;;;6.54;75.12;99040.81;5034936;28;45166;-71
2022/03/31 04:58:31;;;;;;;;;59.75;47.00;;;;;6.53;76.41;99040.88;5034938;28;45291;-68
2022/03/31 05:00:56;;;;;;;;;64.25;49.75;;;;;6.50;75.23;99038.41;5035122;28;45329;-66
2022/03/31 05:03:22;;;;;;;;;59.75;46.00;;;;;6.45;76.27;99036.03;5035609;28;45487;-64
2022/03/31 05:05:48;;;;;;;;;60.00;45.25;;;;;6.44;75.33;99039.56;5016882;28;47058;-67
2022/03/31 05:08:13;;;;;;;;;59.75;48.00;;;;;6.40;76.31;99043.25;5035244;28;45414;-64
2022/03/31 05:10:39;;;;;;;;;58.50;44.75;;;;;6.37;75.98;99043.38;5035237;28;45470;-67
2022/03/31 05:13:04;;;;;;;;;62.00;48.50;;;;;6.33;76.88;99039.19;5035606;28;45495;-67
2022/03/31 05:15:30;;;;;;;;;63.25;48.75;;;;;6.34;76.49;99046.13;5034817;28;46113;-71
2022/03/31 05:17:55;;;;;;;;;62.75;48.00;;;;;6.35;76.90;99053.03;5034727;28;45365;-68
2022/03/31 05:20:22;;;;;;;;;63.75;48.50;;;;;6.32;76.51;99056.66;5035161;28;45520;-64
2022/03/31 05:22:48;;;;;;;;;57.75;46.50;;;;;6.31;77.01;99065.41;5017031;28;45229;-63
2022/03/31 05:25:14;;;;;;;;;62.25;47.25;;;;;6.28;76.83;99055.09;5033461;28;48320;-66
2022/03/31 05:27:45;;;;;;;;;64.00;49.50;;;;;6.29;77.29;99062.00;5033382;28;45339;-65
2022/03/31 05:30:16;;;;;;;;;62.00;47.75;;;;;6.29;76.98;99065.47;5034679;28;45451;-62
2022/03/31 05:32:42;;;;;;;;;62.00;50.00;;;;;6.31;77.42;99060.19;5035622;28;45311;-65
2022/03/31 05:35:09;;;;;;;;;59.00;46.00;;;;;6.32;77.53;99061.00;5037767;28;45481;-66
2022/03/31 05:37:35;;;;;;;;;62.25;47.75;;;;;6.31;77.37;99057.56;5037874;28;45288;-69
2022/03/31 05:40:06;;;;;;;;;67.50;49.00;;;;;6.30;77.71;99063.72;5037021;28;45320;-70
2022/03/31 05:42:32;;;;;;;;;66.25;52.75;;;;;6.29;77.88;99070.69;5038695;28;45428;-64
2022/03/31 05:44:59;;;;;;;;;67.25;51.25;;;;;6.29;77.67;99069.84;5038251;28;45407;-68
2022/03/31 05:47:25;;;;;;;;;70.25;51.75;;;;;6.31;78.01;99074.97;5038630;28;45371;-66
2022/03/31 05:49:50;;;;;;;;;64.25;51.00;;;;;6.29;77.51;99072.47;5038627;28;45327;-61
2022/03/31 05:52:15;;;;;;;;;68.00;52.50;;;;;6.31;79.17;99069.75;5038196;28;45326;-64
2022/03/31 05:54:42;;;;;;;;;70.75;53.50;;;;;6.35;78.99;99076.53;5037891;28;45383;-67
2022/03/31 05:57:08;;;;;;;;;72.25;55.75;;;;;6.41;78.18;99073.66;5037976;28;45237;-69
2022/03/31 05:59:33;;;;;;;;;68.50;53.50;;;;;6.46;79.30;99084.75;5036452;28;45374;-71
2022/03/31 06:01:59;;;;;;;;;71.00;55.50;;;;;6.53;79.63;99085.28;5038571;28;45530;-68
2022/03/31 06:04:24;;;;;;;;;71.00;53.67;;;;;6.61;78.79;99090.97;5038323;28;45891;-69
2022/03/31 06:06:50;;;;;;;;;72.25;55.25;;;;;6.69;79.49;99088.03;5037789;28;45324;-66
2022/03/31 06:09:15;;;;;;;;;71.25;59.25;;;;;6.75;77.80;99090.34;5037710;28;45221;-69
2022/03/31 06:11:42;;;;;;;;;75.00;59.33;;;;;6.78;78.34;99100.63;5037646;28;45626;-68
2022/03/31 06:14:09;;;;;;;;;72.67;62.33;;;;;6.83;78.38;99096.03;5037474;28;46943;-67
2022/03/31 06:16:35;;;;;;;;;75.00;58.25;;;;;6.89;77.55;99100.09;5037916;28;45348;-67
2022/03/31 06:19:00;;;;;;;;;73.00;58.67;;;;;6.95;78.89;99093.75;5037887;28;45360;-70
2022/03/31 06:21:26;;;;;;;;;73.00;56.67;;;;;6.99;77.72;99097.88;5036227;28;45661;-71
2022/03/31 06:23:51;;;;;;;;;76.33;60.33;;;;;6.98;77.76;99096.19;5037149;28;46110;-71
2022/03/31 06:26:16;;;;;;;;;78.00;58.75;;;;;6.90;77.77;99085.28;5037425;28;45336;-67
2022/03/31 06:28:42;;;;;;;;;74.00;59.00;;;;;7.05;77.79;99102.81;5038072;28;45319;-68
2022/03/31 06:31:07;;;;;;;;;74.25;57.00;;;;;7.11;77.23;99104.28;5019602;28;45327;-68
2022/03/31 06:33:33;;;;;;;;;82.00;61.75;;;;;7.16;76.71;99107.53;5037153;28;46186;-66
2022/03/31 06:35:58;;;;;;;;;79.50;61.00;;;;;7.24;77.56;99108.00;5037649;28;45234;-66
2022/03/31 06:38:24;;;;;;;;;71.50;55.50;;;;;7.31;76.19;99114.59;5037011;28;45250;-66
2022/03/31 06:41:10;;;;;;;;;77.75;61.50;;;;;7.35;76.35;99107.44;5037046;28;45225;-70
2022/03/31 06:43:37;;;;;;;;;74.25;56.25;;;;;7.53;76.00;99113.50;5036044;28;46664;-66
2022/03/31 06:46:03;;;;;;;;;77.00;59.50;;;;;7.64;76.47;99112.13;5018665;28;45592;-67
2022/03/31 06:48:32;;;;;;;;;72.00;55.00;;;;;7.68;74.97;99114.50;5037208;28;45684;-70
2022/03/31 06:50:58;;;;;;;;;69.50;53.00;;;;;7.66;74.98;99108.50;5037530;28;45518;-65
2022/03/31 06:53:24;;;;;;;;;74.25;54.25;;;;;7.69;74.31;99107.47;5036466;28;45764;-66
2022/03/31 06:55:50;;;;;;;;;71.00;57.75;;;;;7.72;74.64;99102.09;5036654;28;45222;-64
2022/03/31 06:58:16;;;;;;;;;70.25;54.50;;;;;7.82;74.62;99097.22;5019089;28;45429;-64
2022/03/31 07:00:42;;;;;;;;;68.75;54.25;;;;;7.93;73.85;99096.66;5036999;28;45507;-69
2022/03/31 07:03:10;;;;;;;;;71.50;56.75;;;;;8.01;73.68;99092.69;5036653;28;45517;-66
2022/03/31 07:05:37;;;;;;;;;69.25;50.25;;;;;8.12;73.08;99091.28;5035859;28;45402;-69
2022/03/31 07:08:03;;;;;;;;;66.75;52.50;;;;;8.23;73.04;99091.53;5036548;28;45414;-64
2022/03/31 07:10:29;;;;;;;;;71.75;56.00;;;;;8.32;72.27;99093.66;5037007;28;45400;-68
2022/03/31 07:12:54;;;;;;;;;68.00;51.25;;;;;8.37;72.01;99093.41;5036382;28;45309;-70
2022/03/31 07:15:19;;;;;;;;;67.00;52.25;;;;;8.33;71.32;99092.72;5036831;28;45207;-68
2022/03/31 07:17:45;;;;;;;;;65.75;50.00;;;;;8.40;72.05;99089.78;5034909;28;45262;-69
2022/03/31 07:20:11;;;;;;;;;64.50;50.75;;;;;8.43;71.20;99089.59;5036733;28;45262;-63
2022/03/31 07:22:46;;;;;;;;;63.25;51.25;;;;;8.43;70.80;99087.84;5036347;28;45513;-67
2022/03/31 07:25:13;;;;;;;;;69.25;52.25;;;;;8.45;71.07;99088.59;5036171;28;45279;-64
2022/03/31 07:27:38;;;;;;;;;63.25;50.00;;;;;8.54;71.08;99092.53;5035203;28;45312;-63
2022/03/31 07:30:04;;;;;;;;;62.75;50.00;;;;;8.62;70.80;99099.94;5036533;28;45651;-69
2022/03/31 07:32:29;;;;;;;;;64.50;50.50;;;;;8.62;70.17;99099.94;5036343;28;45438;-63
2022/03/31 07:34:55;;;;;;;;;64.75;49.50;;;;;8.57;70.09;99102.84;5036224;28;45370;-66
2022/03/31 07:37:21;;;;;;;;;65.25;51.00;;;;;8.50;71.27;99100.63;5018762;28;45355;-67
2022/03/31 07:39:46;;;;;;;;;68.00;50.75;;;;;8.53;70.79;99110.94;5036297;28;45394;-64
2022/03/31 07:42:12;;;;;;;;;65.25;49.50;;;;;8.50;70.59;99106.72;5035798;28;51160;-67
2022/03/31 07:44:39;;;;;;;;;64.25;50.00;;;;;8.48;71.27;99117.25;5034640;28;45237;-68
2022/03/31 07:47:05;;;;;;;;;55.50;46.00;;;;;8.47;71.20;99119.94;5036267;28;45256;-66
2022/03/31 07:49:30;;;;;;;;;63.75;48.00;;;;;8.36;70.93;99112.69;5036741;28;45256;-66
2022/03/31 07:51:56;;;;;;;;;62.00;48.75;;;;;8.26;71.64;99111.50;5035956;28;45474;-63
2022/03/31 07:54:21;;;;;;;;;66.00;50.00;;;;;8.08;72.73;99115.94;5036243;28;45475;-65
2022/03/31 07:56:47;;;;;;;;;64.75;51.00;;;;;8.12;72.70;99127.94;5035344;28;45345;-69
2022/03/31 07:59:12;;;;;;;;;63.75;50.25;;;;;8.06;73.43;99117.81;5034499;28;45516;-63
2022/03/31 08:01:38;;;;;;;;;63.75;50.75;;;;;7.98;73.88;99129.53;5017903;28;45354;-63
2022/03/31 08:04:05;;;;;;;;;64.50;50.75;;;;;7.86;74.70;99124.94;5036186;28;45395;-66
2022/03/31 08:06:30;;;;;;;;;63.50;49.50;;;;;7.83;74.81;99122.47;5036578;28;45353;-64
2022/03/31 08:08:56;;;;;;;;;63.00;49.00;;;;;7.75;75.84;99123.72;5036179;28;45322;-66
2022/03/31 08:11:21;;;;;;;;;65.75;51.50;;;;;7.78;75.90;99122.72;5035757;28;46014;-66
2022/03/31 08:13:47;;;;;;;;;55.00;43.25;;;;;7.72;75.99;99126.50;5035880;28;45150;-67
2022/03/31 08:16:12;;;;;;;;;65.75;50.25;;;;;7.71;77.26;99132.66;5035876;28;45234;-61
2022/03/31 08:18:38;;;;;;;;;56.00;45.25;;;;;7.63;77.98;99132.22;5035721;28;45597;-66
2022/03/31 08:21:04;;;;;;;;;47.50;37.00;;;;;7.43;77.92;99151.53;5036194;28;45325;-66
2022/03/31 08:23:30;;;;;;;;;35.75;32.00;;;;;7.13;77.14;99144.28;5034428;28;45358;-68
2022/03/31 08:25:55;;;;;;;;;31.00;28.75;;;;;6.92;76.89;99160.09;5035764;28;45284;-67
2022/03/31 08:28:21;;;;;;;;;29.00;27.00;;;;;6.65;77.77;99176.16;5035771;28;45390;-66
2022/03/31 08:30:47;;;;;;;;;29.25;27.00;;;;;6.41;78.17;99167.69;5035291;28;46318;-64
2022/03/31 08:33:12;;;;;;;;;30.75;29.00;;;;;6.24;78.73;99169.28;5017653;28;45273;-68
2022/03/31 08:35:38;;;;;;;;;24.75;21.25;;;;;6.17;78.41;99174.88;5017509;28;45456;-66
2022/03/31 08:38:03;;;;;;;;;23.75;22.25;;;;;6.04;77.42;99192.81;5036084;28;45403;-70
2022/03/31 08:40:29;;;;;;;;;23.25;21.50;;;;;5.87;77.47;99185.72;5035556;28;45471;-70
2022/03/31 08:42:54;;;;;;;;;23.00;19.75;;;;;5.80;78.31;99179.88;5035210;28;45257;-67
2022/03/31 08:45:21;;;;;;;;;19.75;17.50;;;;;5.80;77.46;99182.50;5035569;28;45271;-67
2022/03/31 08:47:49;;;;;;;;;11.00;11.00;;;;;5.74;76.50;99195.81;5035982;28;45360;-64
2022/03/31 08:50:15;;;;;;;;;18.25;17.00;;;;;5.69;76.80;99201.22;5034326;28;48305;-68
2022/03/31 08:52:41;;;;;;;;;16.00;14.50;;;;;5.67;76.22;99203.91;5035492;28;45341;-64
2022/03/31 08:55:09;;;;;;;;;17.00;14.75;;;;;5.67;75.57;99211.72;5035452;28;45487;-63
2022/03/31 08:57:41;;;;;;;;;14.33;14.33;;;;;5.59;75.06;99220.78;5035787;28;45325;-67
2022/03/31 09:00:08;;;;;;;;;15.75;13.25;;;;;5.58;75.54;99229.50;5034996;28;46102;-63
2022/03/31 09:02:34;;;;;;;;;11.00;11.00;;;;;5.53;75.30;99220.13;5035645;28;45530;-67
2022/03/31 09:05:09;;;;;;;;;12.00;11.00;;;;;5.54;76.07;99236.63;5036007;28;45852;-63
2022/03/31 09:07:36;;;;;;;;;12.00;11.75;;;;;5.53;75.67;99233.16;5039595;28;45356;-67
2022/03/31 09:10:02;;;;;;;;;16.75;14.75;;;;;5.44;76.49;99245.75;5041787;28;45256;-63
2022/03/31 09:12:40;;;;;;;;;14.50;14.50;;;;;5.36;77.64;99251.25;5023821;28;45391;-64
2022/03/31 09:15:11;;;;;;;;;18.50;15.00;;;;;5.17;78.26;99253.72;5042112;28;45293;-64
2022/03/31 09:17:36;;;;;;;;;15.00;15.00;;;;;5.09;78.49;99262.69;5042224;28;45325;-64
2022/03/31 09:20:02;;;;;;;;;15.50;14.50;;;;;4.99;79.79;99269.16;5041508;28;46133;-68
2022/03/31 09:22:27;;;;;;;;;16.00;14.75;;;;;4.82;80.00;99264.63;5041777;28;45290;-64
2022/03/31 09:25:02;;;;;;;;;14.25;12.50;;;;;4.66;82.47;99280.78;5041734;28;45229;-66
2022/03/31 09:27:28;;;;;;;;;21.25;15.50;;;;;4.55;83.62;99287.31;5042198;28;45574;-65
2022/03/31 09:30:04;;;;;;;;;15.00;13.75;;;;;4.36;85.87;99277.56;5041624;28;45438;-65
2022/03/31 09:32:29;;;;;;;;;11.50;9.50;;;;;4.22;88.53;99280.63;5041781;28;45342;-70
2022/03/31 09:35:03;;;;;;;;;13.75;13.75;;;;;4.17;89.83;99282.56;5041672;28;45265;-67
2022/03/31 09:37:32;;;;;;;;;19.75;19.75;;;;;4.14;90.85;99287.88;5042011;28;45194;-62
2022/03/31 09:39:57;;;;;;;;;19.75;19.00;;;;;4.16;92.28;99293.88;5041303;28;45391;-70
2022/03/31 09:42:23;;;;;;;;;28.75;22.25;;;;;4.26;92.60;99295.25;5041250;28;45347;-64
2022/03/31 09:44:59;;;;;;;;;22.00;19.25;;;;;4.42;93.17;99294.72;5041684;28;45481;-63
2022/03/31 09:47:26;;;;;;;;;16.50;16.50;;;;;4.43;90.97;99296.41;5023845;28;45505;-67
2022/03/31 09:49:55;;;;;;;;;22.25;18.25;;;;;4.47;90.91;99306.66;5041474;28;47025;-63
2022/03/31 09:52:21;;;;;;;;;19.00;16.50;;;;;4.51;89.87;99302.19;5023345;28;45778;-65
2022/03/31 09:54:48;;;;;;;;;18.75;17.75;;;;;4.55;90.58;99303.78;5023074;28;45443;-63
2022/03/31 09:57:14;;;;;;;;;17.00;16.00;;;;;4.58;88.93;99295.03;5041662;28;45360;-67
2022/03/31 09:59:41;;;;;;;;;21.50;16.25;;;;;4.57;88.96;99293.31;5022756;28;46955;-64
2022/03/31 10:02:07;;;;;;;;;13.50;13.50;;;;;4.59;87.20;99296.72;5041507;28;45181;-67
2022/03/31 10:04:34;;;;;;;;;19.75;14.00;;;;;4.62;87.09;99296.59;5041591;28;45237;-68
2022/03/31 10:07:00;;;;;;;;;19.75;19.00;;;;;4.68;87.17;99292.00;5041675;28;45620;-68
2022/03/31 10:09:26;;;;;;;;;14.75;14.75;;;;;4.75;87.24;99303.06;5039889;28;46945;-67
2022/03/31 10:12:06;;;;;;;;;12.00;10.50;;;;;4.73;87.85;99298.81;5041347;28;45368;-66
2022/03/31 10:14:53;;;;;;;;;18.75;17.25;;;;;4.64;88.32;99302.59;5041501;28;45423;-70
2022/03/31 10:17:26;;;;;;;;;19.75;15.75;;;;;4.61;88.90;99308.75;5041607;28;45290;-65
2022/03/31 10:19:52;;;;;;;;;20.75;19.00;;;;;4.58;89.32;99303.66;5035872;28;47485;-65
2022/03/31 10:25:07;;;;;;;;;18.00;18.00;;;;;4.66;89.51;99324.25;5037780;28;45225;-69
2022/03/31 10:27:39;;;;;;;;;14.25;14.00;;;;;4.66;86.34;99311.22;5037944;28;45462;-68
2022/03/31 10:30:27;;;;;;;;;14.50;13.25;;;;;4.73;86.48;99312.69;5037303;28;45639;-65
2022/03/31 10:32:58;;;;;;;;;15.00;14.50;;;;;4.80;91.74;99313.34;5035100;28;45545;-62
2022/03/31 10:35:30;;;;;;;;;12.00;11.25;;;;;4.91;91.38;99318.13;5037223;28;45243;-67
2022/03/31 10:37:58;;;;;;;;;18.00;15.00;;;;;5.12;88.13;99319.09;5037857;28;45538;-66
2022/03/31 10:40:42;;;;;;;;;15.25;14.75;;;;;5.36;87.89;99306.88;5037328;28;45640;-64
2022/03/31 10:43:21;;;;;;;;;15.00;14.75;;;;;5.71;86.74;99306.34;5037446;28;45271;-64
2022/03/31 10:45:48;;;;;;;;;6.00;4.00;;;;;6.07;81.46;99302.31;5036646;28;45670;-66
2022/03/31 10:48:21;;;;;;;;;10.50;9.00;;;;;6.35;81.09;99298.53;5037477;28;45570;-67
2022/03/31 10:50:59;;;;;;;;;13.00;8.50;;;;;6.67;78.94;99301.53;5019845;28;46744;-68
2022/03/31 10:53:29;;;;;;;;;9.75;9.75;;;;;6.91;77.16;99298.72;5036757;28;45369;-68
2022/03/31 10:55:55;;;;;;;;;10.50;9.75;;;;;6.97;76.44;99299.28;5037400;28;45298;-70
2022/03/31 10:58:25;;;;;;;;;18.25;16.25;;;;;7.15;76.46;99300.19;5037378;28;45646;-70
2022/03/31 11:00:55;;;;;;;;;9.25;7.50;;;;;7.35;75.77;99289.72;5035356;28;46480;-69
2022/03/31 11:03:20;;;;;;;;;9.25;7.50;;;;;7.52;74.11;99292.38;5036754;28;45373;-69
2022/03/31 11:05:47;;;;;;;;;7.00;7.00;;;;;7.55;72.84;99294.00;5036987;28;45263;-69
2022/03/31 11:08:17;;;;;;;;;15.00;12.00;;;;;7.84;73.96;99307.44;5019100;28;45574;-65
2022/03/31 11:10:45;;;;;;;;;8.00;8.00;;;;;7.95;70.20;99292.03;5036679;28;46604;-66
2022/03/31 11:13:12;;;;;;;;;5.50;5.50;;;;;7.95;69.29;99302.50;5036596;28;45378;-64
2022/03/31 11:15:38;;;;;;;;;13.25;13.25;;;;;8.18;69.88;99292.63;5037270;28;45487;-66
2022/03/31 11:18:04;;;;;;;;;11.00;11.00;;;;;8.39;67.56;99293.31;5035641;28;45592;-64
2022/03/31 11:20:30;;;;;;;;;15.50;12.00;;;;;8.67;68.70;99304.19;5036295;28;45422;-69
2022/03/31 11:22:59;;;;;;;;;5.75;5.25;;;;;8.76;66.30;99303.69;5018655;28;45532;-70
2022/03/31 11:25:25;;;;;;;;;9.25;9.25;;;;;8.73;66.48;99298.59;5035516;28;45311;-70
2022/03/31 11:27:52;;;;;;;;;9.00;9.00;;;;;8.58;65.61;99302.88;5036956;28;45515;-68
2022/03/31 11:30:23;;;;;;;;;10.00;10.00;;;;;8.55;67.12;99314.38;5034094;28;48205;-66